sensor_id;sensor_type;location;lat;lon;timestamp;temperature;humidity
19813;DHT22;10066;48.108;11.448;2024-03-02T00:00:52;7.00;99.90
19813;DHT22;10066;48.108;11.448;2024-03-02T00:03:19;7.00;99.90
19813;DHT22;10066;48.108;11.448;2024-03-02T00:05:50;7.00;99.90
19813;DHT22;10066;48.108;11.448;2024-03-02T00:08:23;7.00;99.90
19813;DHT22;10066;48.108;11.448;2024-03-02T00:10:53;7.00;99.90
19813;DHT22;10066;48.108;11.448;2024-03-02T00:13:23;7.00;99.90
19813;DHT22;10066;48.108;11.448;2024-03-02T00:15:53;7.00;99.90
19813;DHT22;10066;48.108;11.448;2024-03-02T00:18:24;7.00;99.90
19813;DHT22;10066;48.108;11.448;2024-03-02T00:20:53;7.00;99.90
19813;DHT22;10066;48.108;11.448;2024-03-02T00:23:23;6.90;99.90
19813;DHT22;10066;48.108;11.448;2024-03-02T00:25:52;6.90;99.90
19813;DHT22;10066;48.108;11.448;2024-03-02T00:28:23;6.90;99.90
19813;DHT22;10066;48.108;11.448;2024-03-02T00:30:58;6.90;99.90
19813;DHT22;10066;48.108;11.448;2024-03-02T00:33:31;6.80;99.90
19813;DHT22;10066;48.108;11.448;2024-03-02T00:36:00;6.80;99.90
19813;DHT22;10066;48.108;11.448;2024-03-02T00:38:29;6.80;99.90
19813;DHT22;10066;48.108;11.448;2024-03-02T00:40:58;6.80;99.90
19813;DHT22;10066;48.108;11.448;2024-03-02T00:43:47;6.80;99.90
19813;DHT22;10066;48.108;11.448;2024-03-02T00:46:18;6.80;99.90
19813;DHT22;10066;48.108;11.448;2024-03-02T00:48:52;6.80;99.90
19813;DHT22;10066;48.108;11.448;2024-03-02T00:51:21;6.80;99.90
19813;DHT22;10066;48.108;11.448;2024-03-02T00:53:50;6.70;99.90
19813;DHT22;10066;48.108;11.448;2024-03-02T00:56:18;6.70;99.90
19813;DHT22;10066;48.108;11.448;2024-03-02T00:58:45;6.70;99.90
19813;DHT22;10066;48.108;11.448;2024-03-02T01:01:12;6.70;99.90
19813;DHT22;10066;48.108;11.448;2024-03-02T01:03:40;6.70;99.90
19813;DHT22;10066;48.108;11.448;2024-03-02T01:06:08;6.70;99.90
19813;DHT22;10066;48.108;11.448;2024-03-02T01:08:36;6.70;99.90
19813;DHT22;10066;48.108;11.448;2024-03-02T01:11:05;6.60;99.90
19813;DHT22;10066;48.108;11.448;2024-03-02T01:13:32;6.60;99.90
19813;DHT22;10066;48.108;11.448;2024-03-02T01:16:00;6.60;99.90
19813;DHT22;10066;48.108;11.448;2024-03-02T01:18:27;6.50;99.90
19813;DHT22;10066;48.108;11.448;2024-03-02T01:20:54;6.50;99.90
19813;DHT22;10066;48.108;11.448;2024-03-02T01:23:22;6.50;99.90
19813;DHT22;10066;48.108;11.448;2024-03-02T01:25:49;6.50;99.90
19813;DHT22;10066;48.108;11.448;2024-03-02T01:28:18;6.50;99.90
19813;DHT22;10066;48.108;11.448;2024-03-02T01:30:46;6.50;99.90
19813;DHT22;10066;48.108;11.448;2024-03-02T01:33:13;6.50;99.90
19813;DHT22;10066;48.108;11.448;2024-03-02T01:35:40;6.50;99.90
19813;DHT22;10066;48.108;11.448;2024-03-02T01:38:07;6.50;99.90
19813;DHT22;10066;48.108;11.448;2024-03-02T01:40:35;6.50;99.90
19813;DHT22;10066;48.108;11.448;2024-03-02T01:43:02;6.50;99.90
19813;DHT22;10066;48.108;11.448;2024-03-02T01:45:31;6.50;99.90
19813;DHT22;10066;48.108;11.448;2024-03-02T01:47:58;6.50;99.90
19813;DHT22;10066;48.108;11.448;2024-03-02T01:50:28;6.50;99.90
19813;DHT22;10066;48.108;11.448;2024-03-02T01:52:56;6.50;99.90
19813;DHT22;10066;48.108;11.448;2024-03-02T01:55:23;6.50;99.90
19813;DHT22;10066;48.108;11.448;2024-03-02T01:57:51;6.50;99.90
19813;DHT22;10066;48.108;11.448;2024-03-02T02:00:18;6.50;99.90
19813;DHT22;10066;48.108;11.448;2024-03-02T02:02:48;6.50;99.90
19813;DHT22;10066;48.108;11.448;2024-03-02T02:05:15;6.50;99.90
19813;DHT22;10066;48.108;11.448;2024-03-02T02:07:42;6.50;99.90
19813;DHT22;10066;48.108;11.448;2024-03-02T02:10:10;6.50;99.90
19813;DHT22;10066;48.108;11.448;2024-03-02T02:12:37;6.50;99.90
19813;DHT22;10066;48.108;11.448;2024-03-02T02:15:22;6.50;99.90
19813;DHT22;10066;48.108;11.448;2024-03-02T02:17:50;6.40;99.90
19813;DHT22;10066;48.108;11.448;2024-03-02T02:20:17;6.50;99.90
19813;DHT22;10066;48.108;11.448;2024-03-02T02:22:59;6.50;99.90
19813;DHT22;10066;48.108;11.448;2024-03-02T02:25:27;6.40;99.90
19813;DHT22;10066;48.108;11.448;2024-03-02T02:27:55;6.40;99.90
19813;DHT22;10066;48.108;11.448;2024-03-02T02:30:24;6.40;99.90
19813;DHT22;10066;48.108;11.448;2024-03-02T02:32:52;6.40;99.90
19813;DHT22;10066;48.108;11.448;2024-03-02T02:35:19;6.30;99.90
19813;DHT22;10066;48.108;11.448;2024-03-02T02:37:47;6.30;99.90
19813;DHT22;10066;48.108;11.448;2024-03-02T02:40:16;6.30;99.90
19813;DHT22;10066;48.108;11.448;2024-03-02T02:42:44;6.30;99.90
19813;DHT22;10066;48.108;11.448;2024-03-02T02:45:11;6.30;99.90
19813;DHT22;10066;48.108;11.448;2024-03-02T02:47:40;6.30;99.90
19813;DHT22;10066;48.108;11.448;2024-03-02T02:50:07;6.30;99.90
19813;DHT22;10066;48.108;11.448;2024-03-02T02:52:35;6.30;99.90
19813;DHT22;10066;48.108;11.448;2024-03-02T02:55:04;6.30;99.90
19813;DHT22;10066;48.108;11.448;2024-03-02T02:57:33;6.30;99.90
19813;DHT22;10066;48.108;11.448;2024-03-02T03:00:04;6.30;99.90
19813;DHT22;10066;48.108;11.448;2024-03-02T03:02:38;6.40;99.90
19813;DHT22;10066;48.108;11.448;2024-03-02T03:05:08;6.40;99.90
19813;DHT22;10066;48.108;11.448;2024-03-02T03:07:35;6.40;99.90
19813;DHT22;10066;48.108;11.448;2024-03-02T03:10:04;6.40;99.90
19813;DHT22;10066;48.108;11.448;2024-03-02T03:12:33;6.40;99.90
19813;DHT22;10066;48.108;11.448;2024-03-02T03:15:01;6.50;99.90
19813;DHT22;10066;48.108;11.448;2024-03-02T03:17:28;6.50;99.90
19813;DHT22;10066;48.108;11.448;2024-03-02T03:19:55;6.50;99.90
19813;DHT22;10066;48.108;11.448;2024-03-02T03:22:22;6.50;99.90
19813;DHT22;10066;48.108;11.448;2024-03-02T03:24:49;6.50;99.90
19813;DHT22;10066;48.108;11.448;2024-03-02T03:27:17;6.50;99.90
19813;DHT22;10066;48.108;11.448;2024-03-02T03:29:46;6.50;99.90
19813;DHT22;10066;48.108;11.448;2024-03-02T03:32:13;6.50;99.90
19813;DHT22;10066;48.108;11.448;2024-03-02T03:34:42;6.50;99.90
19813;DHT22;10066;48.108;11.448;2024-03-02T03:37:09;6.50;99.90
19813;DHT22;10066;48.108;11.448;2024-03-02T03:39:36;6.50;99.90
19813;DHT22;10066;48.108;11.448;2024-03-02T03:42:02;6.50;99.90
19813;DHT22;10066;48.108;11.448;2024-03-02T03:44:29;6.60;99.90
19813;DHT22;10066;48.108;11.448;2024-03-02T03:46:57;6.60;99.90
19813;DHT22;10066;48.108;11.448;2024-03-02T03:49:25;6.60;99.90
19813;DHT22;10066;48.108;11.448;2024-03-02T03:51:51;6.60;99.90
19813;DHT22;10066;48.108;11.448;2024-03-02T03:54:19;6.60;99.90
19813;DHT22;10066;48.108;11.448;2024-03-02T03:56:45;6.70;99.90
19813;DHT22;10066;48.108;11.448;2024-03-02T03:59:12;6.70;99.90
19813;DHT22;10066;48.108;11.448;2024-03-02T04:01:39;6.70;99.90
19813;DHT22;10066;48.108;11.448;2024-03-02T04:04:08;6.70;99.90
19813;DHT22;10066;48.108;11.448;2024-03-02T04:06:35;6.80;99.90
19813;DHT22;10066;48.108;11.448;2024-03-02T04:09:02;6.80;99.90
19813;DHT22;10066;48.108;11.448;2024-03-02T04:11:30;6.80;99.90
19813;DHT22;10066;48.108;11.448;2024-03-02T04:13:57;6.80;99.90
19813;DHT22;10066;48.108;11.448;2024-03-02T04:16:24;6.80;99.90
19813;DHT22;10066;48.108;11.448;2024-03-02T04:18:51;6.80;99.90
19813;DHT22;10066;48.108;11.448;2024-03-02T04:21:20;6.90;99.90
19813;DHT22;10066;48.108;11.448;2024-03-02T04:23:47;6.80;99.90
19813;DHT22;10066;48.108;11.448;2024-03-02T04:26:14;6.90;99.90
19813;DHT22;10066;48.108;11.448;2024-03-02T04:28:45;6.90;99.90
19813;DHT22;10066;48.108;11.448;2024-03-02T04:31:12;6.90;99.90
19813;DHT22;10066;48.108;11.448;2024-03-02T04:33:39;6.80;99.90
19813;DHT22;10066;48.108;11.448;2024-03-02T04:36:06;6.80;99.90
19813;DHT22;10066;48.108;11.448;2024-03-02T04:38:36;6.80;99.90
19813;DHT22;10066;48.108;11.448;2024-03-02T04:41:04;6.80;99.90
19813;DHT22;10066;48.108;11.448;2024-03-02T04:43:31;6.80;99.90
19813;DHT22;10066;48.108;11.448;2024-03-02T04:45:58;6.70;99.90
19813;DHT22;10066;48.108;11.448;2024-03-02T04:48:25;6.80;99.90
19813;DHT22;10066;48.108;11.448;2024-03-02T04:50:53;6.70;99.90
19813;DHT22;10066;48.108;11.448;2024-03-02T04:53:20;6.70;99.90
19813;DHT22;10066;48.108;11.448;2024-03-02T04:55:48;6.70;99.90
19813;DHT22;10066;48.108;11.448;2024-03-02T04:58:53;6.80;99.90
19813;DHT22;10066;48.108;11.448;2024-03-02T05:01:20;6.70;99.90
19813;DHT22;10066;48.108;11.448;2024-03-02T05:03:47;6.70;99.90
19813;DHT22;10066;48.108;11.448;2024-03-02T05:06:14;6.70;99.90
19813;DHT22;10066;48.108;11.448;2024-03-02T05:08:41;6.70;99.90
19813;DHT22;10066;48.108;11.448;2024-03-02T05:11:11;6.70;99.90
19813;DHT22;10066;48.108;11.448;2024-03-02T05:14:01;6.70;99.90
19813;DHT22;10066;48.108;11.448;2024-03-02T05:16:28;6.70;99.90
19813;DHT22;10066;48.108;11.448;2024-03-02T05:18:55;6.60;99.90
19813;DHT22;10066;48.108;11.448;2024-03-02T05:21:22;6.60;99.90
19813;DHT22;10066;48.108;11.448;2024-03-02T05:23:49;6.60;99.90
19813;DHT22;10066;48.108;11.448;2024-03-02T05:26:17;6.60;99.90
19813;DHT22;10066;48.108;11.448;2024-03-02T05:28:44;6.60;99.90
19813;DHT22;10066;48.108;11.448;2024-03-02T05:31:11;6.70;99.90
19813;DHT22;10066;48.108;11.448;2024-03-02T05:33:41;6.70;99.90
19813;DHT22;10066;48.108;11.448;2024-03-02T05:36:08;6.50;99.90
19813;DHT22;10066;48.108;11.448;2024-03-02T05:38:35;6.70;99.90
19813;DHT22;10066;48.108;11.448;2024-03-02T05:41:03;6.70;99.90
19813;DHT22;10066;48.108;11.448;2024-03-02T05:43:31;6.70;99.90
19813;DHT22;10066;48.108;11.448;2024-03-02T05:45:58;6.70;99.90
19813;DHT22;10066;48.108;11.448;2024-03-02T05:48:25;6.70;99.90
19813;DHT22;10066;48.108;11.448;2024-03-02T05:50:52;6.70;99.90
19813;DHT22;10066;48.108;11.448;2024-03-02T05:53:19;6.80;99.90
19813;DHT22;10066;48.108;11.448;2024-03-02T05:55:46;6.80;99.90
19813;DHT22;10066;48.108;11.448;2024-03-02T05:58:18;6.80;99.90
19813;DHT22;10066;48.108;11.448;2024-03-02T06:00:58;6.80;99.90
19813;DHT22;10066;48.108;11.448;2024-03-02T06:03:25;6.80;99.90
19813;DHT22;10066;48.108;11.448;2024-03-02T06:05:54;6.80;99.90
19813;DHT22;10066;48.108;11.448;2024-03-02T06:08:21;6.80;99.90
19813;DHT22;10066;48.108;11.448;2024-03-02T06:10:48;6.80;99.90
19813;DHT22;10066;48.108;11.448;2024-03-02T06:13:15;6.90;99.90
19813;DHT22;10066;48.108;11.448;2024-03-02T06:15:42;7.00;99.90
19813;DHT22;10066;48.108;11.448;2024-03-02T06:18:10;7.00;99.90
19813;DHT22;10066;48.108;11.448;2024-03-02T06:20:37;7.00;99.90
19813;DHT22;10066;48.108;11.448;2024-03-02T06:23:05;7.10;99.90
19813;DHT22;10066;48.108;11.448;2024-03-02T06:25:32;7.20;99.90
19813;DHT22;10066;48.108;11.448;2024-03-02T06:27:59;7.20;99.90
19813;DHT22;10066;48.108;11.448;2024-03-02T06:30:26;7.30;99.90
19813;DHT22;10066;48.108;11.448;2024-03-02T06:32:53;7.30;99.90
19813;DHT22;10066;48.108;11.448;2024-03-02T06:35:21;7.30;99.90
19813;DHT22;10066;48.108;11.448;2024-03-02T06:37:48;7.30;99.90
19813;DHT22;10066;48.108;11.448;2024-03-02T06:40:16;7.30;99.90
19813;DHT22;10066;48.108;11.448;2024-03-02T06:42:43;7.40;99.90
19813;DHT22;10066;48.108;11.448;2024-03-02T06:45:10;7.40;99.90
19813;DHT22;10066;48.108;11.448;2024-03-02T06:47:37;7.40;99.90
19813;DHT22;10066;48.108;11.448;2024-03-02T06:50:05;8.10;99.90
19813;DHT22;10066;48.108;11.448;2024-03-02T06:52:34;7.50;99.90
19813;DHT22;10066;48.108;11.448;2024-03-02T06:55:01;7.50;99.90
19813;DHT22;10066;48.108;11.448;2024-03-02T06:57:28;7.60;99.90
19813;DHT22;10066;48.108;11.448;2024-03-02T06:59:55;7.60;99.90
19813;DHT22;10066;48.108;11.448;2024-03-02T07:02:24;7.70;99.90
19813;DHT22;10066;48.108;11.448;2024-03-02T07:04:52;7.70;99.90
19813;DHT22;10066;48.108;11.448;2024-03-02T07:07:19;7.80;99.90
19813;DHT22;10066;48.108;11.448;2024-03-02T07:09:48;7.80;99.90
19813;DHT22;10066;48.108;11.448;2024-03-02T07:12:15;7.80;99.90
19813;DHT22;10066;48.108;11.448;2024-03-02T07:14:42;7.80;99.90
19813;DHT22;10066;48.108;11.448;2024-03-02T07:17:36;7.80;99.90
19813;DHT22;10066;48.108;11.448;2024-03-02T07:20:04;7.80;99.90
19813;DHT22;10066;48.108;11.448;2024-03-02T07:22:32;7.90;99.90
19813;DHT22;10066;48.108;11.448;2024-03-02T07:25:01;7.80;99.90
19813;DHT22;10066;48.108;11.448;2024-03-02T07:27:28;7.70;99.90
19813;DHT22;10066;48.108;11.448;2024-03-02T07:29:57;7.80;99.90
19813;DHT22;10066;48.108;11.448;2024-03-02T07:32:24;7.80;99.90
19813;DHT22;10066;48.108;11.448;2024-03-02T07:34:51;7.80;99.90
19813;DHT22;10066;48.108;11.448;2024-03-02T07:37:18;7.80;99.90
19813;DHT22;10066;48.108;11.448;2024-03-02T07:39:46;7.70;99.90
19813;DHT22;10066;48.108;11.448;2024-03-02T07:42:15;7.70;99.90
19813;DHT22;10066;48.108;11.448;2024-03-02T07:44:41;7.60;99.90
19813;DHT22;10066;48.108;11.448;2024-03-02T07:47:10;7.60;99.90
19813;DHT22;10066;48.108;11.448;2024-03-02T07:49:37;7.40;99.90
19813;DHT22;10066;48.108;11.448;2024-03-02T07:52:04;7.50;99.90
19813;DHT22;10066;48.108;11.448;2024-03-02T07:54:31;7.60;99.90
19813;DHT22;10066;48.108;11.448;2024-03-02T07:56:58;7.40;99.90
19813;DHT22;10066;48.108;11.448;2024-03-02T07:59:27;7.40;99.90
19813;DHT22;10066;48.108;11.448;2024-03-02T08:01:54;7.40;99.90
19813;DHT22;10066;48.108;11.448;2024-03-02T08:04:22;7.40;99.90
19813;DHT22;10066;48.108;11.448;2024-03-02T08:06:49;7.70;99.90
19813;DHT22;10066;48.108;11.448;2024-03-02T08:09:16;7.30;99.90
19813;DHT22;10066;48.108;11.448;2024-03-02T08:11:43;7.20;99.90
19813;DHT22;10066;48.108;11.448;2024-03-02T08:14:10;7.20;99.90
19813;DHT22;10066;48.108;11.448;2024-03-02T08:16:38;7.10;99.90
19813;DHT22;10066;48.108;11.448;2024-03-02T08:19:07;7.10;99.90
19813;DHT22;10066;48.108;11.448;2024-03-02T08:21:35;7.10;99.90
19813;DHT22;10066;48.108;11.448;2024-03-02T08:24:03;7.20;99.90
19813;DHT22;10066;48.108;11.448;2024-03-02T08:26:30;6.80;99.90
19813;DHT22;10066;48.108;11.448;2024-03-02T08:28:57;7.20;99.90
19813;DHT22;10066;48.108;11.448;2024-03-02T08:31:24;7.20;99.90
19813;DHT22;10066;48.108;11.448;2024-03-02T08:33:53;7.30;99.90
19813;DHT22;10066;48.108;11.448;2024-03-02T08:36:21;7.40;99.90
19813;DHT22;10066;48.108;11.448;2024-03-02T08:38:48;7.50;99.90
19813;DHT22;10066;48.108;11.448;2024-03-02T08:41:16;7.40;99.90
19813;DHT22;10066;48.108;11.448;2024-03-02T08:43:43;7.50;99.90
19813;DHT22;10066;48.108;11.448;2024-03-02T08:46:10;7.50;99.90
19813;DHT22;10066;48.108;11.448;2024-03-02T08:48:37;7.70;99.90
19813;DHT22;10066;48.108;11.448;2024-03-02T08:51:05;8.10;99.90
19813;DHT22;10066;48.108;11.448;2024-03-02T08:53:33;7.90;99.90
19813;DHT22;10066;48.108;11.448;2024-03-02T08:56:00;8.00;99.90
19813;DHT22;10066;48.108;11.448;2024-03-02T08:58:27;8.00;99.90
19813;DHT22;10066;48.108;11.448;2024-03-02T09:00:54;8.00;99.90
19813;DHT22;10066;48.108;11.448;2024-03-02T09:03:21;8.00;99.90
19813;DHT22;10066;48.108;11.448;2024-03-02T09:05:48;8.00;99.90
19813;DHT22;10066;48.108;11.448;2024-03-02T09:08:17;8.00;99.90
19813;DHT22;10066;48.108;11.448;2024-03-02T09:10:44;8.00;99.90
19813;DHT22;10066;48.108;11.448;2024-03-02T09:13:11;8.10;99.90
19813;DHT22;10066;48.108;11.448;2024-03-02T09:15:38;8.10;99.90
19813;DHT22;10066;48.108;11.448;2024-03-02T09:18:06;8.20;99.90
19813;DHT22;10066;48.108;11.448;2024-03-02T09:20:33;8.30;99.90
19813;DHT22;10066;48.108;11.448;2024-03-02T09:23:00;8.30;99.90
19813;DHT22;10066;48.108;11.448;2024-03-02T09:25:29;8.50;99.90
19813;DHT22;10066;48.108;11.448;2024-03-02T09:27:56;8.70;99.90
19813;DHT22;10066;48.108;11.448;2024-03-02T09:30:23;8.80;99.90
19813;DHT22;10066;48.108;11.448;2024-03-02T09:32:50;8.90;99.90
19813;DHT22;10066;48.108;11.448;2024-03-02T09:35:17;8.90;99.90
19813;DHT22;10066;48.108;11.448;2024-03-02T09:37:45;9.00;99.90
19813;DHT22;10066;48.108;11.448;2024-03-02T09:40:13;9.10;99.90
19813;DHT22;10066;48.108;11.448;2024-03-02T09:42:43;9.10;99.90
19813;DHT22;10066;48.108;11.448;2024-03-02T09:45:17;9.80;99.90
19813;DHT22;10066;48.108;11.448;2024-03-02T09:47:45;9.30;99.90
19813;DHT22;10066;48.108;11.448;2024-03-02T09:50:12;9.40;99.90
19813;DHT22;10066;48.108;11.448;2024-03-02T09:52:40;9.30;99.90
19813;DHT22;10066;48.108;11.448;2024-03-02T09:55:09;9.60;99.90
19813;DHT22;10066;48.108;11.448;2024-03-02T09:57:36;9.70;99.90
19813;DHT22;10066;48.108;11.448;2024-03-02T10:00:06;9.80;99.90
19813;DHT22;10066;48.108;11.448;2024-03-02T10:02:33;9.80;99.90
19813;DHT22;10066;48.108;11.448;2024-03-02T10:05:00;10.00;99.90
19813;DHT22;10066;48.108;11.448;2024-03-02T10:07:29;10.70;99.90
19813;DHT22;10066;48.108;11.448;2024-03-02T10:09:56;10.10;99.90
19813;DHT22;10066;48.108;11.448;2024-03-02T10:12:24;10.20;99.90
19813;DHT22;10066;48.108;11.448;2024-03-02T10:15:04;10.20;99.90
19813;DHT22;10066;48.108;11.448;2024-03-02T10:17:33;10.20;99.90
19813;DHT22;10066;48.108;11.448;2024-03-02T10:20:23;10.40;99.90
19813;DHT22;10066;48.108;11.448;2024-03-02T10:22:50;10.40;99.90
19813;DHT22;10066;48.108;11.448;2024-03-02T10:25:29;10.40;99.90
19813;DHT22;10066;48.108;11.448;2024-03-02T10:27:57;10.50;99.90
19813;DHT22;10066;48.108;11.448;2024-03-02T10:30:27;10.60;99.90
19813;DHT22;10066;48.108;11.448;2024-03-02T10:32:55;10.70;99.90
19813;DHT22;10066;48.108;11.448;2024-03-02T10:35:23;10.70;99.90
19813;DHT22;10066;48.108;11.448;2024-03-02T10:37:52;10.80;99.90
19813;DHT22;10066;48.108;11.448;2024-03-02T10:40:21;10.80;99.90
19813;DHT22;10066;48.108;11.448;2024-03-02T10:42:49;10.90;99.90
19813;DHT22;10066;48.108;11.448;2024-03-02T10:45:17;11.00;99.90
19813;DHT22;10066;48.108;11.448;2024-03-02T10:47:47;11.00;99.90
19813;DHT22;10066;48.108;11.448;2024-03-02T10:50:14;10.90;99.90
19813;DHT22;10066;48.108;11.448;2024-03-02T10:52:42;11.00;99.90
19813;DHT22;10066;48.108;11.448;2024-03-02T10:55:09;11.00;99.90
19813;DHT22;10066;48.108;11.448;2024-03-02T10:57:41;11.10;99.90
19813;DHT22;10066;48.108;11.448;2024-03-02T11:00:12;11.10;99.90
19813;DHT22;10066;48.108;11.448;2024-03-02T11:02:50;11.10;99.90
19813;DHT22;10066;48.108;11.448;2024-03-02T11:05:26;11.50;99.90
19813;DHT22;10066;48.108;11.448;2024-03-02T11:07:57;11.10;99.90
19813;DHT22;10066;48.108;11.448;2024-03-02T11:10:32;11.20;99.90
19813;DHT22;10066;48.108;11.448;2024-03-02T11:13:02;11.30;99.90
19813;DHT22;10066;48.108;11.448;2024-03-02T11:18:03;10.40;99.90
19813;DHT22;10066;48.108;11.448;2024-03-02T11:20:35;11.40;99.90
19813;DHT22;10066;48.108;11.448;2024-03-02T11:23:04;11.30;99.90
19813;DHT22;10066;48.108;11.448;2024-03-02T11:25:31;11.40;99.90
19813;DHT22;10066;48.108;11.448;2024-03-02T11:28:06;11.50;99.90
19813;DHT22;10066;48.108;11.448;2024-03-02T11:30:50;11.50;99.90
19813;DHT22;10066;48.108;11.448;2024-03-02T11:33:26;11.50;99.90
19813;DHT22;10066;48.108;11.448;2024-03-02T11:35:57;11.50;99.90
19813;DHT22;10066;48.108;11.448;2024-03-02T11:38:31;11.50;99.90
19813;DHT22;10066;48.108;11.448;2024-03-02T11:41:00;11.60;99.90
19813;DHT22;10066;48.108;11.448;2024-03-02T11:43:28;11.60;99.90
19813;DHT22;10066;48.108;11.448;2024-03-02T11:45:58;11.60;99.90
19813;DHT22;10066;48.108;11.448;2024-03-02T11:48:27;11.60;99.90
19813;DHT22;10066;48.108;11.448;2024-03-02T11:50:59;11.70;99.90
19813;DHT22;10066;48.108;11.448;2024-03-02T11:53:27;11.70;99.90
19813;DHT22;10066;48.108;11.448;2024-03-02T11:55:55;11.70;99.90
19813;DHT22;10066;48.108;11.448;2024-03-02T11:58:23;11.80;99.90
19813;DHT22;10066;48.108;11.448;2024-03-02T12:00:52;11.90;99.90
19813;DHT22;10066;48.108;11.448;2024-03-02T12:03:21;11.90;99.90
19813;DHT22;10066;48.108;11.448;2024-03-02T12:05:50;11.90;99.90
19813;DHT22;10066;48.108;11.448;2024-03-02T12:08:18;11.80;99.90
19813;DHT22;10066;48.108;11.448;2024-03-02T12:10:56;11.80;99.90
19813;DHT22;10066;48.108;11.448;2024-03-02T12:13:23;11.90;99.90
19813;DHT22;10066;48.108;11.448;2024-03-02T12:15:53;12.00;99.90
19813;DHT22;10066;48.108;11.448;2024-03-02T12:18:21;12.10;99.90
19813;DHT22;10066;48.108;11.448;2024-03-02T12:20:50;12.10;99.90
19813;DHT22;10066;48.108;11.448;2024-03-02T12:23:22;12.20;99.90
19813;DHT22;10066;48.108;11.448;2024-03-02T12:25:49;12.20;99.90
19813;DHT22;10066;48.108;11.448;2024-03-02T12:28:16;12.20;99.90
19813;DHT22;10066;48.108;11.448;2024-03-02T12:30:45;12.20;99.90
19813;DHT22;10066;48.108;11.448;2024-03-02T12:33:13;12.20;99.90
19813;DHT22;10066;48.108;11.448;2024-03-02T12:35:40;12.10;99.90
19813;DHT22;10066;48.108;11.448;2024-03-02T12:38:09;12.20;99.90
19813;DHT22;10066;48.108;11.448;2024-03-02T12:40:37;12.20;99.90
19813;DHT22;10066;48.108;11.448;2024-03-02T12:43:05;12.20;99.90
19813;DHT22;10066;48.108;11.448;2024-03-02T12:45:33;12.20;99.90
19813;DHT22;10066;48.108;11.448;2024-03-02T12:48:00;12.30;99.90
19813;DHT22;10066;48.108;11.448;2024-03-02T12:50:28;12.30;99.90
19813;DHT22;10066;48.108;11.448;2024-03-02T12:52:55;12.30;99.90
19813;DHT22;10066;48.108;11.448;2024-03-02T12:55:24;12.30;99.90
19813;DHT22;10066;48.108;11.448;2024-03-02T12:57:51;12.20;99.90
19813;DHT22;10066;48.108;11.448;2024-03-02T13:00:19;12.10;99.90
19813;DHT22;10066;48.108;11.448;2024-03-02T13:02:48;12.20;99.90
19813;DHT22;10066;48.108;11.448;2024-03-02T13:05:16;12.20;99.90
19813;DHT22;10066;48.108;11.448;2024-03-02T13:07:43;12.20;99.90
19813;DHT22;10066;48.108;11.448;2024-03-02T13:10:12;12.30;99.90
19813;DHT22;10066;48.108;11.448;2024-03-02T13:12:41;12.40;99.90
19813;DHT22;10066;48.108;11.448;2024-03-02T13:15:08;12.40;99.90
19813;DHT22;10066;48.108;11.448;2024-03-02T13:17:36;12.40;99.90
19813;DHT22;10066;48.108;11.448;2024-03-02T13:20:04;12.50;99.90
19813;DHT22;10066;48.108;11.448;2024-03-02T13:22:33;12.40;99.90
19813;DHT22;10066;48.108;11.448;2024-03-02T13:25:00;12.40;99.90
19813;DHT22;10066;48.108;11.448;2024-03-02T13:27:29;12.50;99.90
19813;DHT22;10066;48.108;11.448;2024-03-02T13:29:58;12.50;99.90
19813;DHT22;10066;48.108;11.448;2024-03-02T13:32:25;12.50;99.90
19813;DHT22;10066;48.108;11.448;2024-03-02T13:34:52;12.40;99.90
19813;DHT22;10066;48.108;11.448;2024-03-02T13:37:20;12.40;99.90
19813;DHT22;10066;48.108;11.448;2024-03-02T13:39:47;12.40;99.90
19813;DHT22;10066;48.108;11.448;2024-03-02T13:42:14;12.50;99.90
19813;DHT22;10066;48.108;11.448;2024-03-02T13:44:43;12.50;99.90
19813;DHT22;10066;48.108;11.448;2024-03-02T13:47:12;12.50;99.90
19813;DHT22;10066;48.108;11.448;2024-03-02T13:49:39;12.40;99.90
19813;DHT22;10066;48.108;11.448;2024-03-02T13:52:09;12.40;99.90
19813;DHT22;10066;48.108;11.448;2024-03-02T13:54:39;12.40;99.90
19813;DHT22;10066;48.108;11.448;2024-03-02T13:57:08;12.40;99.90
19813;DHT22;10066;48.108;11.448;2024-03-02T13:59:36;12.50;99.90
19813;DHT22;10066;48.108;11.448;2024-03-02T14:02:04;12.50;99.90
19813;DHT22;10066;48.108;11.448;2024-03-02T14:04:33;12.50;99.90
19813;DHT22;10066;48.108;11.448;2024-03-02T14:07:01;12.50;99.90
19813;DHT22;10066;48.108;11.448;2024-03-02T14:09:28;12.50;99.90
19813;DHT22;10066;48.108;11.448;2024-03-02T14:11:56;12.50;99.90
19813;DHT22;10066;48.108;11.448;2024-03-02T14:14:23;12.60;99.90
19813;DHT22;10066;48.108;11.448;2024-03-02T14:16:50;12.60;99.90
19813;DHT22;10066;48.108;11.448;2024-03-02T14:19:17;12.60;99.90
19813;DHT22;10066;48.108;11.448;2024-03-02T14:21:46;12.60;99.90
19813;DHT22;10066;48.108;11.448;2024-03-02T14:24:13;12.50;99.90
19813;DHT22;10066;48.108;11.448;2024-03-02T14:26:40;12.40;99.90
19813;DHT22;10066;48.108;11.448;2024-03-02T14:29:07;12.40;99.90
19813;DHT22;10066;48.108;11.448;2024-03-02T14:31:37;12.40;99.90
19813;DHT22;10066;48.108;11.448;2024-03-02T14:34:04;12.40;99.90
19813;DHT22;10066;48.108;11.448;2024-03-02T14:36:31;12.40;99.90
19813;DHT22;10066;48.108;11.448;2024-03-02T14:38:59;12.50;99.90
19813;DHT22;10066;48.108;11.448;2024-03-02T14:41:26;12.40;99.90
19813;DHT22;10066;48.108;11.448;2024-03-02T14:43:53;12.40;99.90
19813;DHT22;10066;48.108;11.448;2024-03-02T14:46:20;12.50;99.90
19813;DHT22;10066;48.108;11.448;2024-03-02T14:48:47;12.40;99.90
19813;DHT22;10066;48.108;11.448;2024-03-02T14:51:14;12.40;99.80
19813;DHT22;10066;48.108;11.448;2024-03-02T14:53:41;12.40;99.90
19813;DHT22;10066;48.108;11.448;2024-03-02T14:56:10;12.50;99.90
19813;DHT22;10066;48.108;11.448;2024-03-02T14:58:38;12.50;99.90
19813;DHT22;10066;48.108;11.448;2024-03-02T15:01:05;12.50;99.90
19813;DHT22;10066;48.108;11.448;2024-03-02T15:03:34;12.50;99.90
19813;DHT22;10066;48.108;11.448;2024-03-02T15:06:02;12.50;99.90
19813;DHT22;10066;48.108;11.448;2024-03-02T15:08:30;12.50;99.90
19813;DHT22;10066;48.108;11.448;2024-03-02T15:10:57;12.50;99.90
19813;DHT22;10066;48.108;11.448;2024-03-02T15:13:27;12.50;99.90
19813;DHT22;10066;48.108;11.448;2024-03-02T15:15:54;12.40;99.90
19813;DHT22;10066;48.108;11.448;2024-03-02T15:18:21;12.40;99.90
19813;DHT22;10066;48.108;11.448;2024-03-02T15:20:49;12.30;99.90
19813;DHT22;10066;48.108;11.448;2024-03-02T15:23:16;12.30;99.90
19813;DHT22;10066;48.108;11.448;2024-03-02T15:25:43;12.30;99.90
19813;DHT22;10066;48.108;11.448;2024-03-02T15:28:10;12.30;99.90
19813;DHT22;10066;48.108;11.448;2024-03-02T15:30:39;12.30;99.90
19813;DHT22;10066;48.108;11.448;2024-03-02T15:33:07;12.20;99.90
19813;DHT22;10066;48.108;11.448;2024-03-02T15:35:33;12.00;99.90